sensor_id;sensor_type;location;lat;lon;timestamp;P1;durP1;ratioP1;P2;durP2;ratioP2
50012;SDS011;35901;48.694;9.476;2024-01-07T00:00:34;29.60;;;21.07;;
50012;SDS011;35901;48.694;9.476;2024-01-07T00:03:00;28.83;;;21.13;;
50012;SDS011;35901;48.694;9.476;2024-01-07T00:05:26;30.03;;;20.30;;
50012;SDS011;35901;48.694;9.476;2024-01-07T00:07:51;28.30;;;20.57;;
50012;SDS011;35901;48.694;9.476;2024-01-07T00:10:17;31.93;;;20.80;;
50012;SDS011;35901;48.694;9.476;2024-01-07T00:12:43;33.43;;;22.57;;
50012;SDS011;35901;48.694;9.476;2024-01-07T00:15:09;31.30;;;21.23;;
50012;SDS011;35901;48.694;9.476;2024-01-07T00:17:37;32.53;;;22.03;;
50012;SDS011;35901;48.694;9.476;2024-01-07T00:20:02;33.90;;;22.97;;
50012;SDS011;35901;48.694;9.476;2024-01-07T00:22:28;28.13;;;19.97;;
50012;SDS011;35901;48.694;9.476;2024-01-07T00:24:54;30.80;;;21.17;;
50012;SDS011;35901;48.694;9.476;2024-01-07T00:27:19;30.20;;;20.60;;
50012;SDS011;35901;48.694;9.476;2024-01-07T00:29:46;31.17;;;21.07;;
50012;SDS011;35901;48.694;9.476;2024-01-07T00:32:12;29.63;;;21.03;;
50012;SDS011;35901;48.694;9.476;2024-01-07T00:34:37;30.07;;;19.83;;
50012;SDS011;35901;48.694;9.476;2024-01-07T00:37:03;29.90;;;19.77;;
50012;SDS011;35901;48.694;9.476;2024-01-07T00:39:29;30.73;;;21.97;;
50012;SDS011;35901;48.694;9.476;2024-01-07T00:41:54;24.77;;;18.87;;
50012;SDS011;35901;48.694;9.476;2024-01-07T00:44:20;26.40;;;19.27;;
50012;SDS011;35901;48.694;9.476;2024-01-07T00:46:45;24.83;;;18.17;;
50012;SDS011;35901;48.694;9.476;2024-01-07T00:49:11;26.73;;;19.80;;
50012;SDS011;35901;48.694;9.476;2024-01-07T00:51:37;27.90;;;20.40;;
50012;SDS011;35901;48.694;9.476;2024-01-07T00:54:02;29.07;;;20.70;;
50012;SDS011;35901;48.694;9.476;2024-01-07T00:56:28;27.00;;;20.73;;
50012;SDS011;35901;48.694;9.476;2024-01-07T00:58:55;27.57;;;19.83;;
50012;SDS011;35901;48.694;9.476;2024-01-07T01:01:30;26.57;;;19.03;;
50012;SDS011;35901;48.694;9.476;2024-01-07T01:03:56;24.10;;;18.03;;
50012;SDS011;35901;48.694;9.476;2024-01-07T01:06:23;28.13;;;19.47;;
50012;SDS011;35901;48.694;9.476;2024-01-07T01:08:48;26.17;;;18.60;;
50012;SDS011;35901;48.694;9.476;2024-01-07T01:11:14;25.37;;;18.73;;
50012;SDS011;35901;48.694;9.476;2024-01-07T01:13:40;25.40;;;19.17;;
50012;SDS011;35901;48.694;9.476;2024-01-07T01:16:05;23.43;;;17.47;;
50012;SDS011;35901;48.694;9.476;2024-01-07T01:18:31;27.07;;;19.67;;
50012;SDS011;35901;48.694;9.476;2024-01-07T01:20:57;26.47;;;18.93;;
50012;SDS011;35901;48.694;9.476;2024-01-07T01:23:22;24.40;;;17.10;;
50012;SDS011;35901;48.694;9.476;2024-01-07T01:25:48;26.73;;;18.83;;
50012;SDS011;35901;48.694;9.476;2024-01-07T01:28:14;28.93;;;19.77;;
50012;SDS011;35901;48.694;9.476;2024-01-07T01:30:39;28.27;;;19.20;;
50012;SDS011;35901;48.694;9.476;2024-01-07T01:33:13;26.33;;;19.23;;
50012;SDS011;35901;48.694;9.476;2024-01-07T01:35:39;28.67;;;19.87;;
50012;SDS011;35901;48.694;9.476;2024-01-07T01:38:04;25.37;;;18.60;;
50012;SDS011;35901;48.694;9.476;2024-01-07T01:40:30;24.60;;;17.70;;
50012;SDS011;35901;48.694;9.476;2024-01-07T01:42:56;24.73;;;17.60;;
50012;SDS011;35901;48.694;9.476;2024-01-07T01:45:21;25.17;;;18.97;;
50012;SDS011;35901;48.694;9.476;2024-01-07T01:47:47;31.23;;;20.30;;
50012;SDS011;35901;48.694;9.476;2024-01-07T01:50:13;24.73;;;17.83;;
50012;SDS011;35901;48.694;9.476;2024-01-07T01:52:39;22.43;;;16.97;;
50012;SDS011;35901;48.694;9.476;2024-01-07T01:55:05;28.70;;;19.40;;
50012;SDS011;35901;48.694;9.476;2024-01-07T01:57:32;26.27;;;18.47;;
50012;SDS011;35901;48.694;9.476;2024-01-07T02:00:04;25.93;;;18.40;;
50012;SDS011;35901;48.694;9.476;2024-01-07T02:02:32;25.80;;;17.80;;
50012;SDS011;35901;48.694;9.476;2024-01-07T02:05:00;26.03;;;19.03;;
50012;SDS011;35901;48.694;9.476;2024-01-07T02:07:27;28.53;;;19.07;;
50012;SDS011;35901;48.694;9.476;2024-01-07T02:09:54;25.60;;;18.43;;
50012;SDS011;35901;48.694;9.476;2024-01-07T02:12:20;25.33;;;18.53;;
50012;SDS011;35901;48.694;9.476;2024-01-07T02:14:47;24.63;;;17.37;;
50012;SDS011;35901;48.694;9.476;2024-01-07T02:17:23;25.10;;;17.80;;
50012;SDS011;35901;48.694;9.476;2024-01-07T02:19:48;26.43;;;18.20;;
50012;SDS011;35901;48.694;9.476;2024-01-07T02:22:17;27.13;;;18.23;;
50012;SDS011;35901;48.694;9.476;2024-01-07T02:24:44;29.97;;;18.83;;
50012;SDS011;35901;48.694;9.476;2024-01-07T02:27:10;28.50;;;19.67;;
50012;SDS011;35901;48.694;9.476;2024-01-07T02:29:35;24.37;;;17.97;;
50012;SDS011;35901;48.694;9.476;2024-01-07T02:32:01;25.87;;;17.97;;
50012;SDS011;35901;48.694;9.476;2024-01-07T02:34:27;26.80;;;19.23;;
50012;SDS011;35901;48.694;9.476;2024-01-07T02:36:52;25.10;;;17.80;;
50012;SDS011;35901;48.694;9.476;2024-01-07T02:39:18;26.77;;;18.73;;
50012;SDS011;35901;48.694;9.476;2024-01-07T02:41:44;23.83;;;17.33;;
50012;SDS011;35901;48.694;9.476;2024-01-07T02:44:09;32.73;;;19.40;;
50012;SDS011;35901;48.694;9.476;2024-01-07T02:46:35;27.20;;;18.73;;
50012;SDS011;35901;48.694;9.476;2024-01-07T02:49:01;27.77;;;18.20;;
50012;SDS011;35901;48.694;9.476;2024-01-07T02:51:26;27.83;;;18.70;;
50012;SDS011;35901;48.694;9.476;2024-01-07T02:53:52;25.90;;;17.37;;
50012;SDS011;35901;48.694;9.476;2024-01-07T02:56:18;27.67;;;18.53;;
50012;SDS011;35901;48.694;9.476;2024-01-07T02:58:43;27.47;;;18.30;;
50012;SDS011;35901;48.694;9.476;2024-01-07T03:01:09;29.43;;;19.20;;
50012;SDS011;35901;48.694;9.476;2024-01-07T03:03:40;26.53;;;17.27;;
50012;SDS011;35901;48.694;9.476;2024-01-07T03:06:06;30.53;;;19.23;;
50012;SDS011;35901;48.694;9.476;2024-01-07T03:08:32;32.13;;;20.40;;
50012;SDS011;35901;48.694;9.476;2024-01-07T03:10:57;30.03;;;19.73;;
50012;SDS011;35901;48.694;9.476;2024-01-07T03:13:23;29.97;;;18.93;;
50012;SDS011;35901;48.694;9.476;2024-01-07T03:15:48;30.03;;;18.93;;
50012;SDS011;35901;48.694;9.476;2024-01-07T03:18:14;29.07;;;18.67;;
50012;SDS011;35901;48.694;9.476;2024-01-07T03:20:40;29.53;;;17.97;;
50012;SDS011;35901;48.694;9.476;2024-01-07T03:23:05;26.07;;;17.43;;
50012;SDS011;35901;48.694;9.476;2024-01-07T03:25:31;30.73;;;18.50;;
50012;SDS011;35901;48.694;9.476;2024-01-07T03:27:57;29.03;;;18.67;;
50012;SDS011;35901;48.694;9.476;2024-01-07T03:30:22;28.10;;;18.80;;
50012;SDS011;35901;48.694;9.476;2024-01-07T03:32:48;22.33;;;15.87;;
50012;SDS011;35901;48.694;9.476;2024-01-07T03:35:14;25.10;;;17.33;;
50012;SDS011;35901;48.694;9.476;2024-01-07T03:37:50;27.03;;;17.47;;
50012;SDS011;35901;48.694;9.476;2024-01-07T03:40:16;24.37;;;15.90;;
50012;SDS011;35901;48.694;9.476;2024-01-07T03:42:41;24.93;;;17.90;;
50012;SDS011;35901;48.694;9.476;2024-01-07T03:45:07;25.80;;;17.60;;
50012;SDS011;35901;48.694;9.476;2024-01-07T03:47:33;23.13;;;15.70;;
50012;SDS011;35901;48.694;9.476;2024-01-07T03:49:58;28.10;;;17.73;;
50012;SDS011;35901;48.694;9.476;2024-01-07T03:52:24;24.97;;;16.77;;
50012;SDS011;35901;48.694;9.476;2024-01-07T03:54:50;24.87;;;16.83;;
50012;SDS011;35901;48.694;9.476;2024-01-07T03:57:16;19.37;;;15.10;;
50012;SDS011;35901;48.694;9.476;2024-01-07T03:59:42;25.87;;;17.03;;
50012;SDS011;35901;48.694;9.476;2024-01-07T04:02:07;21.23;;;15.23;;
50012;SDS011;35901;48.694;9.476;2024-01-07T04:04:33;20.73;;;15.33;;
50012;SDS011;35901;48.694;9.476;2024-01-07T04:06:59;23.40;;;15.73;;
50012;SDS011;35901;48.694;9.476;2024-01-07T04:09:25;20.70;;;16.10;;
50012;SDS011;35901;48.694;9.476;2024-01-07T04:11:50;20.13;;;15.13;;
50012;SDS011;35901;48.694;9.476;2024-01-07T04:14:16;20.17;;;15.17;;
50012;SDS011;35901;48.694;9.476;2024-01-07T04:16:42;20.30;;;15.33;;
50012;SDS011;35901;48.694;9.476;2024-01-07T04:19:07;18.90;;;14.73;;
50012;SDS011;35901;48.694;9.476;2024-01-07T04:21:33;19.90;;;15.57;;
50012;SDS011;35901;48.694;9.476;2024-01-07T04:23:58;21.27;;;16.13;;
50012;SDS011;35901;48.694;9.476;2024-01-07T04:26:24;21.83;;;16.30;;
50012;SDS011;35901;48.694;9.476;2024-01-07T04:28:50;20.40;;;15.67;;
50012;SDS011;35901;48.694;9.476;2024-01-07T04:31:15;20.97;;;15.00;;
50012;SDS011;35901;48.694;9.476;2024-01-07T04:33:41;21.23;;;15.77;;
50012;SDS011;35901;48.694;9.476;2024-01-07T04:36:17;19.20;;;14.67;;
50012;SDS011;35901;48.694;9.476;2024-01-07T04:38:43;18.43;;;14.83;;
50012;SDS011;35901;48.694;9.476;2024-01-07T04:41:08;22.27;;;15.10;;
50012;SDS011;35901;48.694;9.476;2024-01-07T04:43:34;21.33;;;14.70;;
50012;SDS011;35901;48.694;9.476;2024-01-07T04:46:01;22.63;;;16.13;;
50012;SDS011;35901;48.694;9.476;2024-01-07T04:48:27;23.20;;;16.53;;
50012;SDS011;35901;48.694;9.476;2024-01-07T04:50:53;19.90;;;16.13;;
50012;SDS011;35901;48.694;9.476;2024-01-07T04:53:19;19.23;;;15.40;;
50012;SDS011;35901;48.694;9.476;2024-01-07T04:55:44;18.03;;;15.17;;
50012;SDS011;35901;48.694;9.476;2024-01-07T04:58:10;20.10;;;13.83;;
50012;SDS011;35901;48.694;9.476;2024-01-07T05:00:36;19.43;;;15.63;;
50012;SDS011;35901;48.694;9.476;2024-01-07T05:03:01;20.03;;;16.10;;
50012;SDS011;35901;48.694;9.476;2024-01-07T05:05:29;19.77;;;16.07;;
50012;SDS011;35901;48.694;9.476;2024-01-07T05:07:55;21.07;;;15.87;;
50012;SDS011;35901;48.694;9.476;2024-01-07T05:10:20;16.33;;;13.10;;
50012;SDS011;35901;48.694;9.476;2024-01-07T05:12:46;22.80;;;17.60;;
50012;SDS011;35901;48.694;9.476;2024-01-07T05:15:11;21.27;;;16.03;;
50012;SDS011;35901;48.694;9.476;2024-01-07T05:17:37;21.53;;;16.07;;
50012;SDS011;35901;48.694;9.476;2024-01-07T05:20:03;19.70;;;16.00;;
50012;SDS011;35901;48.694;9.476;2024-01-07T05:22:31;19.13;;;15.07;;
50012;SDS011;35901;48.694;9.476;2024-01-07T05:24:56;19.50;;;16.10;;
50012;SDS011;35901;48.694;9.476;2024-01-07T05:27:22;22.67;;;16.67;;
50012;SDS011;35901;48.694;9.476;2024-01-07T05:29:48;20.43;;;15.43;;
50012;SDS011;35901;48.694;9.476;2024-01-07T05:32:14;20.63;;;16.23;;
50012;SDS011;35901;48.694;9.476;2024-01-07T05:34:40;21.17;;;16.23;;
50012;SDS011;35901;48.694;9.476;2024-01-07T05:37:05;20.97;;;16.60;;
50012;SDS011;35901;48.694;9.476;2024-01-07T05:39:31;21.43;;;17.33;;
50012;SDS011;35901;48.694;9.476;2024-01-07T05:41:57;20.73;;;16.17;;
50012;SDS011;35901;48.694;9.476;2024-01-07T05:44:22;24.23;;;17.37;;
50012;SDS011;35901;48.694;9.476;2024-01-07T05:46:48;22.30;;;16.30;;
50012;SDS011;35901;48.694;9.476;2024-01-07T05:49:13;20.77;;;16.77;;
50012;SDS011;35901;48.694;9.476;2024-01-07T05:51:40;19.67;;;16.00;;
50012;SDS011;35901;48.694;9.476;2024-01-07T05:54:05;19.87;;;15.70;;
50012;SDS011;35901;48.694;9.476;2024-01-07T05:56:31;18.30;;;15.40;;
50012;SDS011;35901;48.694;9.476;2024-01-07T05:58:57;21.77;;;16.40;;
50012;SDS011;35901;48.694;9.476;2024-01-07T06:01:22;18.73;;;15.00;;
50012;SDS011;35901;48.694;9.476;2024-01-07T06:03:48;18.27;;;14.43;;
50012;SDS011;35901;48.694;9.476;2024-01-07T06:06:14;18.13;;;14.73;;
50012;SDS011;35901;48.694;9.476;2024-01-07T06:08:43;19.27;;;15.40;;
50012;SDS011;35901;48.694;9.476;2024-01-07T06:11:09;19.23;;;14.83;;
50012;SDS011;35901;48.694;9.476;2024-01-07T06:13:37;15.37;;;13.53;;
50012;SDS011;35901;48.694;9.476;2024-01-07T06:16:03;19.33;;;15.20;;
50012;SDS011;35901;48.694;9.476;2024-01-07T06:18:29;18.20;;;14.37;;
50012;SDS011;35901;48.694;9.476;2024-01-07T06:20:54;21.87;;;16.20;;
50012;SDS011;35901;48.694;9.476;2024-01-07T06:23:20;19.13;;;15.50;;
50012;SDS011;35901;48.694;9.476;2024-01-07T06:25:45;20.43;;;15.83;;
50012;SDS011;35901;48.694;9.476;2024-01-07T06:28:11;18.53;;;14.60;;
50012;SDS011;35901;48.694;9.476;2024-01-07T06:30:37;20.00;;;15.57;;
50012;SDS011;35901;48.694;9.476;2024-01-07T06:33:02;19.73;;;16.07;;
50012;SDS011;35901;48.694;9.476;2024-01-07T06:35:28;18.43;;;14.83;;
50012;SDS011;35901;48.694;9.476;2024-01-07T06:37:54;20.07;;;15.47;;
50012;SDS011;35901;48.694;9.476;2024-01-07T06:40:20;20.63;;;16.03;;
50012;SDS011;35901;48.694;9.476;2024-01-07T06:42:45;18.73;;;15.63;;
50012;SDS011;35901;48.694;9.476;2024-01-07T06:45:12;20.90;;;15.47;;
50012;SDS011;35901;48.694;9.476;2024-01-07T06:47:39;17.57;;;15.50;;
50012;SDS011;35901;48.694;9.476;2024-01-07T06:50:05;20.87;;;16.37;;
50012;SDS011;35901;48.694;9.476;2024-01-07T06:52:31;20.73;;;15.43;;
50012;SDS011;35901;48.694;9.476;2024-01-07T06:54:57;23.47;;;16.90;;
50012;SDS011;35901;48.694;9.476;2024-01-07T06:57:23;22.20;;;17.33;;
50012;SDS011;35901;48.694;9.476;2024-01-07T06:59:48;22.77;;;16.60;;
50012;SDS011;35901;48.694;9.476;2024-01-07T07:02:14;24.23;;;18.10;;
50012;SDS011;35901;48.694;9.476;2024-01-07T07:04:40;21.13;;;16.17;;
50012;SDS011;35901;48.694;9.476;2024-01-07T07:07:05;21.73;;;16.07;;
50012;SDS011;35901;48.694;9.476;2024-01-07T07:09:31;19.97;;;16.20;;
50012;SDS011;35901;48.694;9.476;2024-01-07T07:11:56;22.30;;;17.60;;
50012;SDS011;35901;48.694;9.476;2024-01-07T07:14:22;20.57;;;17.23;;
50012;SDS011;35901;48.694;9.476;2024-01-07T07:16:48;20.40;;;16.00;;
50012;SDS011;35901;48.694;9.476;2024-01-07T07:19:13;21.70;;;15.83;;
50012;SDS011;35901;48.694;9.476;2024-01-07T07:21:40;20.07;;;15.73;;
50012;SDS011;35901;48.694;9.476;2024-01-07T07:24:06;20.50;;;15.47;;
50012;SDS011;35901;48.694;9.476;2024-01-07T07:26:32;19.03;;;15.03;;
50012;SDS011;35901;48.694;9.476;2024-01-07T07:28:58;20.20;;;15.67;;
50012;SDS011;35901;48.694;9.476;2024-01-07T07:31:25;19.43;;;15.67;;
50012;SDS011;35901;48.694;9.476;2024-01-07T07:33:51;18.30;;;14.73;;
50012;SDS011;35901;48.694;9.476;2024-01-07T07:36:17;22.43;;;16.27;;
50012;SDS011;35901;48.694;9.476;2024-01-07T07:38:42;18.30;;;14.67;;
50012;SDS011;35901;48.694;9.476;2024-01-07T07:41:08;15.53;;;13.40;;
50012;SDS011;35901;48.694;9.476;2024-01-07T07:43:34;16.07;;;12.90;;
50012;SDS011;35901;48.694;9.476;2024-01-07T07:45:59;14.97;;;12.47;;
50012;SDS011;35901;48.694;9.476;2024-01-07T07:48:28;15.37;;;12.53;;
50012;SDS011;35901;48.694;9.476;2024-01-07T07:50:53;14.40;;;12.63;;
50012;SDS011;35901;48.694;9.476;2024-01-07T07:53:19;14.97;;;12.63;;
50012;SDS011;35901;48.694;9.476;2024-01-07T07:55:45;13.43;;;11.60;;
50012;SDS011;35901;48.694;9.476;2024-01-07T07:58:11;13.63;;;11.87;;
50012;SDS011;35901;48.694;9.476;2024-01-07T08:00:36;12.97;;;10.73;;
50012;SDS011;35901;48.694;9.476;2024-01-07T08:03:03;12.87;;;10.50;;
50012;SDS011;35901;48.694;9.476;2024-01-07T08:05:29;12.53;;;10.50;;
50012;SDS011;35901;48.694;9.476;2024-01-07T08:07:55;12.77;;;10.33;;
50012;SDS011;35901;48.694;9.476;2024-01-07T08:10:21;13.23;;;11.00;;
50012;SDS011;35901;48.694;9.476;2024-01-07T08:12:47;12.87;;;10.93;;
50012;SDS011;35901;48.694;9.476;2024-01-07T08:15:14;12.73;;;10.53;;
50012;SDS011;35901;48.694;9.476;2024-01-07T08:17:40;13.30;;;11.23;;
50012;SDS011;35901;48.694;9.476;2024-01-07T08:20:06;11.33;;;10.10;;
50012;SDS011;35901;48.694;9.476;2024-01-07T08:22:32;11.47;;;9.93;;
50012;SDS011;35901;48.694;9.476;2024-01-07T08:24:57;12.67;;;10.40;;
50012;SDS011;35901;48.694;9.476;2024-01-07T08:27:23;11.60;;;9.33;;
50012;SDS011;35901;48.694;9.476;2024-01-07T08:29:49;11.70;;;9.57;;
50012;SDS011;35901;48.694;9.476;2024-01-07T08:32:15;11.93;;;9.83;;
50012;SDS011;35901;48.694;9.476;2024-01-07T08:34:40;12.00;;;9.13;;
50012;SDS011;35901;48.694;9.476;2024-01-07T08:37:07;12.87;;;10.17;;
50012;SDS011;35901;48.694;9.476;2024-01-07T08:39:33;11.37;;;9.63;;
50012;SDS011;35901;48.694;9.476;2024-01-07T08:41:59;11.97;;;9.70;;
50012;SDS011;35901;48.694;9.476;2024-01-07T08:44:25;11.23;;;9.67;;
50012;SDS011;35901;48.694;9.476;2024-01-07T08:46:50;12.60;;;10.30;;
50012;SDS011;35901;48.694;9.476;2024-01-07T08:49:16;11.87;;;9.73;;
50012;SDS011;35901;48.694;9.476;2024-01-07T08:51:42;12.10;;;9.40;;
50012;SDS011;35901;48.694;9.476;2024-01-07T08:54:08;11.73;;;9.77;;
50012;SDS011;35901;48.694;9.476;2024-01-07T08:56:34;12.97;;;9.77;;
50012;SDS011;35901;48.694;9.476;2024-01-07T08:58:59;10.97;;;9.47;;
50012;SDS011;35901;48.694;9.476;2024-01-07T09:01:25;10.27;;;8.43;;
50012;SDS011;35901;48.694;9.476;2024-01-07T09:03:51;11.87;;;9.77;;
50012;SDS011;35901;48.694;9.476;2024-01-07T09:06:16;11.03;;;9.30;;
50012;SDS011;35901;48.694;9.476;2024-01-07T09:08:42;11.77;;;9.40;;
50012;SDS011;35901;48.694;9.476;2024-01-07T09:11:08;10.23;;;8.57;;
50012;SDS011;35901;48.694;9.476;2024-01-07T09:13:36;11.67;;;9.03;;
50012;SDS011;35901;48.694;9.476;2024-01-07T09:16:02;10.97;;;8.80;;
50012;SDS011;35901;48.694;9.476;2024-01-07T09:18:28;10.77;;;8.50;;
50012;SDS011;35901;48.694;9.476;2024-01-07T09:20:55;11.73;;;8.67;;
50012;SDS011;35901;48.694;9.476;2024-01-07T09:23:23;11.07;;;8.50;;
50012;SDS011;35901;48.694;9.476;2024-01-07T09:25:49;10.50;;;8.33;;
50012;SDS011;35901;48.694;9.476;2024-01-07T09:28:15;10.70;;;8.10;;
50012;SDS011;35901;48.694;9.476;2024-01-07T09:30:41;9.20;;;7.63;;
50012;SDS011;35901;48.694;9.476;2024-01-07T09:33:06;8.90;;;7.47;;
50012;SDS011;35901;48.694;9.476;2024-01-07T09:35:32;10.27;;;8.03;;
50012;SDS011;35901;48.694;9.476;2024-01-07T09:37:58;8.67;;;7.77;;
50012;SDS011;35901;48.694;9.476;2024-01-07T09:40:26;16.30;;;11.93;;
50012;SDS011;35901;48.694;9.476;2024-01-07T09:42:51;10.70;;;8.70;;
50012;SDS011;35901;48.694;9.476;2024-01-07T09:45:17;10.17;;;8.37;;
50012;SDS011;35901;48.694;9.476;2024-01-07T09:47:44;10.20;;;8.43;;
50012;SDS011;35901;48.694;9.476;2024-01-07T09:50:11;10.40;;;8.27;;
50012;SDS011;35901;48.694;9.476;2024-01-07T09:52:38;10.03;;;8.03;;
50012;SDS011;35901;48.694;9.476;2024-01-07T09:55:07;9.20;;;7.77;;
50012;SDS011;35901;48.694;9.476;2024-01-07T09:57:38;8.83;;;7.40;;
50012;SDS011;35901;48.694;9.476;2024-01-07T10:00:08;8.50;;;7.60;;
50012;SDS011;35901;48.694;9.476;2024-01-07T10:02:37;9.10;;;7.50;;
50012;SDS011;35901;48.694;9.476;2024-01-07T10:05:06;9.00;;;7.57;;
50012;SDS011;35901;48.694;9.476;2024-01-07T10:07:32;9.30;;;7.60;;
50012;SDS011;35901;48.694;9.476;2024-01-07T10:09:58;8.00;;;7.13;;
50012;SDS011;35901;48.694;9.476;2024-01-07T10:12:35;7.97;;;7.10;;
50012;SDS011;35901;48.694;9.476;2024-01-07T10:15:01;8.97;;;7.60;;
50012;SDS011;35901;48.694;9.476;2024-01-07T10:17:27;8.73;;;7.17;;
50012;SDS011;35901;48.694;9.476;2024-01-07T10:19:53;8.60;;;7.13;;
50012;SDS011;35901;48.694;9.476;2024-01-07T10:22:18;8.03;;;7.10;;
50012;SDS011;35901;48.694;9.476;2024-01-07T10:24:45;8.47;;;7.10;;
50012;SDS011;35901;48.694;9.476;2024-01-07T10:27:10;8.20;;;5.90;;
50012;SDS011;35901;48.694;9.476;2024-01-07T10:29:37;9.23;;;7.60;;
50012;SDS011;35901;48.694;9.476;2024-01-07T10:32:03;9.13;;;7.20;;
50012;SDS011;35901;48.694;9.476;2024-01-07T10:34:36;8.03;;;7.03;;
50012;SDS011;35901;48.694;9.476;2024-01-07T10:37:03;8.37;;;6.70;;
50012;SDS011;35901;48.694;9.476;2024-01-07T10:39:30;7.80;;;6.93;;
50012;SDS011;35901;48.694;9.476;2024-01-07T10:42:03;9.67;;;7.30;;
50012;SDS011;35901;48.694;9.476;2024-01-07T10:44:30;7.93;;;6.37;;
50012;SDS011;35901;48.694;9.476;2024-01-07T10:46:57;8.27;;;6.80;;
50012;SDS011;35901;48.694;9.476;2024-01-07T10:49:24;9.50;;;7.50;;
50012;SDS011;35901;48.694;9.476;2024-01-07T10:52:02;7.90;;;7.10;;
50012;SDS011;35901;48.694;9.476;2024-01-07T10:54:32;8.10;;;7.30;;
50012;SDS011;35901;48.694;9.476;2024-01-07T10:59:54;8.57;;;6.90;;
50012;SDS011;35901;48.694;9.476;2024-01-07T11:02:21;7.93;;;7.13;;
50012;SDS011;35901;48.694;9.476;2024-01-07T11:10:20;8.70;;;7.30;;
50012;SDS011;35901;48.694;9.476;2024-01-07T11:12:55;8.63;;;7.00;;
50012;SDS011;35901;48.694;9.476;2024-01-07T11:18:21;8.37;;;6.97;;
50012;SDS011;35901;48.694;9.476;2024-01-07T11:20:47;8.10;;;7.10;;
50012;SDS011;35901;48.694;9.476;2024-01-07T11:25:55;8.97;;;7.20;;
50012;SDS011;35901;48.694;9.476;2024-01-07T11:28:42;8.33;;;7.03;;
50012;SDS011;35901;48.694;9.476;2024-01-07T11:34:04;8.33;;;7.27;;
50012;SDS011;35901;48.694;9.476;2024-01-07T11:36:29;7.90;;;6.97;;
50012;SDS011;35901;48.694;9.476;2024-01-07T11:38:55;9.10;;;7.17;;
50012;SDS011;35901;48.694;9.476;2024-01-07T11:41:22;7.63;;;6.83;;
50012;SDS011;35901;48.694;9.476;2024-01-07T11:44:08;8.27;;;7.33;;
50012;SDS011;35901;48.694;9.476;2024-01-07T11:46:36;7.87;;;7.07;;
50012;SDS011;35901;48.694;9.476;2024-01-07T11:49:02;7.30;;;6.57;;
50012;SDS011;35901;48.694;9.476;2024-01-07T11:51:29;6.67;;;5.70;;
50012;SDS011;35901;48.694;9.476;2024-01-07T11:53:56;7.07;;;5.83;;
50012;SDS011;35901;48.694;9.476;2024-01-07T11:56:23;8.70;;;7.37;;
50012;SDS011;35901;48.694;9.476;2024-01-07T11:58:51;7.70;;;6.83;;
50012;SDS011;35901;48.694;9.476;2024-01-07T12:01:16;8.60;;;7.57;;
50012;SDS011;35901;48.694;9.476;2024-01-07T12:03:43;9.83;;;7.57;;
50012;SDS011;35901;48.694;9.476;2024-01-07T12:06:10;8.07;;;7.03;;
50012;SDS011;35901;48.694;9.476;2024-01-07T12:08:42;8.73;;;7.43;;
50012;SDS011;35901;48.694;9.476;2024-01-07T12:11:12;7.90;;;6.90;;
50012;SDS011;35901;48.694;9.476;2024-01-07T12:13:41;8.43;;;7.57;;
50012;SDS011;35901;48.694;9.476;2024-01-07T12:16:08;8.17;;;7.23;;
50012;SDS011;35901;48.694;9.476;2024-01-07T12:18:37;8.77;;;7.83;;
50012;SDS011;35901;48.694;9.476;2024-01-07T12:21:04;9.10;;;7.50;;
50012;SDS011;35901;48.694;9.476;2024-01-07T12:23:34;9.30;;;7.40;;
50012;SDS011;35901;48.694;9.476;2024-01-07T12:26:08;6.90;;;6.20;;
50012;SDS011;35901;48.694;9.476;2024-01-07T12:28:34;7.90;;;6.97;;
50012;SDS011;35901;48.694;9.476;2024-01-07T12:31:00;7.97;;;6.50;;
50012;SDS011;35901;48.694;9.476;2024-01-07T12:33:26;9.07;;;8.07;;
50012;SDS011;35901;48.694;9.476;2024-01-07T12:35:54;9.57;;;7.60;;
50012;SDS011;35901;48.694;9.476;2024-01-07T12:38:27;8.00;;;7.20;;
50012;SDS011;35901;48.694;9.476;2024-01-07T12:40:53;7.10;;;6.40;;
50012;SDS011;35901;48.694;9.476;2024-01-07T12:43:19;5.50;;;4.97;;
50012;SDS011;35901;48.694;9.476;2024-01-07T12:45:45;7.67;;;6.70;;
50012;SDS011;35901;48.694;9.476;2024-01-07T12:48:13;7.53;;;6.67;;
50012;SDS011;35901;48.694;9.476;2024-01-07T12:50:39;8.73;;;7.50;;
50012;SDS011;35901;48.694;9.476;2024-01-07T12:53:04;8.53;;;7.60;;
50012;SDS011;35901;48.694;9.476;2024-01-07T12:55:30;7.93;;;6.80;;
50012;SDS011;35901;48.694;9.476;2024-01-07T12:57:57;8.70;;;7.80;;
50012;SDS011;35901;48.694;9.476;2024-01-07T13:00:24;7.53;;;5.70;;
50012;SDS011;35901;48.694;9.476;2024-01-07T13:02:50;10.00;;;8.20;;
50012;SDS011;35901;48.694;9.476;2024-01-07T13:05:16;9.23;;;7.70;;
50012;SDS011;35901;48.694;9.476;2024-01-07T13:07:42;10.33;;;7.87;;
50012;SDS011;35901;48.694;9.476;2024-01-07T13:10:08;9.63;;;8.17;;
50012;SDS011;35901;48.694;9.476;2024-01-07T13:12:34;8.47;;;6.40;;
50012;SDS011;35901;48.694;9.476;2024-01-07T13:15:01;11.60;;;8.53;;
50012;SDS011;35901;48.694;9.476;2024-01-07T13:17:27;10.17;;;8.00;;
50012;SDS011;35901;48.694;9.476;2024-01-07T13:19:55;10.33;;;9.13;;
50012;SDS011;35901;48.694;9.476;2024-01-07T13:22:20;10.77;;;9.20;;
50012;SDS011;35901;48.694;9.476;2024-01-07T13:24:46;9.80;;;8.70;;
50012;SDS011;35901;48.694;9.476;2024-01-07T13:27:12;9.20;;;7.87;;
50012;SDS011;35901;48.694;9.476;2024-01-07T13:29:38;9.93;;;8.00;;
50012;SDS011;35901;48.694;9.476;2024-01-07T13:32:04;9.67;;;8.47;;
50012;SDS011;35901;48.694;9.476;2024-01-07T13:34:30;10.70;;;9.07;;
50012;SDS011;35901;48.694;9.476;2024-01-07T13:36:55;11.43;;;10.07;;
50012;SDS011;35901;48.694;9.476;2024-01-07T13:39:21;12.73;;;10.33;;
50012;SDS011;35901;48.694;9.476;2024-01-07T13:41:47;14.00;;;11.00;;
50012;SDS011;35901;48.694;9.476;2024-01-07T13:44:13;12.87;;;10.30;;
50012;SDS011;35901;48.694;9.476;2024-01-07T13:46:46;12.20;;;10.47;;
50012;SDS011;35901;48.694;9.476;2024-01-07T13:49:15;13.53;;;11.13;;
50012;SDS011;35901;48.694;9.476;2024-01-07T13:51:41;14.07;;;10.20;;
50012;SDS011;35901;48.694;9.476;2024-01-07T13:54:07;13.77;;;10.57;;
50012;SDS011;35901;48.694;9.476;2024-01-07T13:56:35;13.37;;;10.70;;
50012;SDS011;35901;48.694;9.476;2024-01-07T13:59:01;13.40;;;9.83;;
50012;SDS011;35901;48.694;9.476;2024-01-07T14:01:30;13.70;;;10.43;;
50012;SDS011;35901;48.694;9.476;2024-01-07T14:03:56;13.53;;;10.77;;
50012;SDS011;35901;48.694;9.476;2024-01-07T14:06:22;13.23;;;10.93;;
50012;SDS011;35901;48.694;9.476;2024-01-07T14:08:48;14.40;;;11.07;;
50012;SDS011;35901;48.694;9.476;2024-01-07T14:11:14;13.63;;;11.03;;
50012;SDS011;35901;48.694;9.476;2024-01-07T14:13:39;14.20;;;10.67;;
50012;SDS011;35901;48.694;9.476;2024-01-07T14:16:05;13.37;;;10.77;;
50012;SDS011;35901;48.694;9.476;2024-01-07T14:18:31;15.53;;;12.07;;
50012;SDS011;35901;48.694;9.476;2024-01-07T14:20:59;13.73;;;10.90;;
50012;SDS011;35901;48.694;9.476;2024-01-07T14:23:39;15.40;;;12.07;;
50012;SDS011;35901;48.694;9.476;2024-01-07T14:26:05;15.37;;;10.97;;
50012;SDS011;35901;48.694;9.476;2024-01-07T14:28:31;13.97;;;10.90;;
50012;SDS011;35901;48.694;9.476;2024-01-07T14:30:56;14.93;;;10.80;;
50012;SDS011;35901;48.694;9.476;2024-01-07T14:33:23;16.67;;;12.47;;
50012;SDS011;35901;48.694;9.476;2024-01-07T14:35:49;13.83;;;11.37;;
50012;SDS011;35901;48.694;9.476;2024-01-07T14:38:14;16.30;;;11.83;;
50012;SDS011;35901;48.694;9.476;2024-01-07T14:40:40;15.20;;;11.53;;